sensor_id;sensor_type;location;lat;lon;timestamp;pressure;altitude;pressure_sealevel;temperature;humidity
64211;BME280;73293;48.538;14.354;2024-03-22T00:00:17;94338.96;;;7.69;100.00
64211;BME280;73293;48.538;14.354;2024-03-22T00:01:13;94339.44;;;7.69;100.00
64211;BME280;73293;48.538;14.354;2024-03-22T00:01:47;94340.12;;;7.69;100.00
64211;BME280;73293;48.538;14.354;2024-03-22T00:02:21;94335.66;;;7.59;100.00
64211;BME280;73293;48.538;14.354;2024-03-22T00:02:54;94339.80;;;7.61;100.00
64211;BME280;73293;48.538;14.354;2024-03-22T00:03:59;94337.23;;;7.62;100.00
64211;BME280;73293;48.538;14.354;2024-03-22T00:04:33;94336.48;;;7.75;100.00
64211;BME280;73293;48.538;14.354;2024-03-22T00:05:12;94334.27;;;7.75;100.00
64211;BME280;73293;48.538;14.354;2024-03-22T00:05:46;94332.84;;;7.69;100.00
64211;BME280;73293;48.538;14.354;2024-03-22T00:06:19;94333.57;;;7.69;100.00
64211;BME280;73293;48.538;14.354;2024-03-22T00:06:52;94329.85;;;7.70;100.00
64211;BME280;73293;48.538;14.354;2024-03-22T00:07:46;94331.63;;;7.69;100.00
64211;BME280;73293;48.538;14.354;2024-03-22T00:08:20;94332.80;;;7.64;100.00
64211;BME280;73293;48.538;14.354;2024-03-22T00:08:53;94332.84;;;7.69;100.00
64211;BME280;73293;48.538;14.354;2024-03-22T00:09:29;94323.43;;;7.75;100.00
64211;BME280;73293;48.538;14.354;2024-03-22T00:10:02;94333.05;;;7.72;100.00
64211;BME280;73293;48.538;14.354;2024-03-22T00:10:36;94328.96;;;7.74;100.00
64211;BME280;73293;48.538;14.354;2024-03-22T00:11:27;94329.45;;;7.90;100.00
64211;BME280;73293;48.538;14.354;2024-03-22T00:12:01;94332.11;;;7.96;100.00
64211;BME280;73293;48.538;14.354;2024-03-22T00:12:34;94333.21;;;7.95;100.00
64211;BME280;73293;48.538;14.354;2024-03-22T00:13:07;94331.27;;;7.90;100.00
64211;BME280;73293;48.538;14.354;2024-03-22T00:13:41;94330.56;;;7.94;100.00
64211;BME280;73293;48.538;14.354;2024-03-22T00:14:14;94331.07;;;8.00;100.00
64211;BME280;73293;48.538;14.354;2024-03-22T00:15:08;94328.34;;;7.96;100.00
64211;BME280;73293;48.538;14.354;2024-03-22T00:15:42;94329.00;;;7.94;100.00
64211;BME280;73293;48.538;14.354;2024-03-22T00:16:18;94323.56;;;7.89;100.00
64211;BME280;73293;48.538;14.354;2024-03-22T00:16:51;94326.28;;;7.92;100.00
64211;BME280;73293;48.538;14.354;2024-03-22T00:17:24;94327.93;;;7.93;100.00
64211;BME280;73293;48.538;14.354;2024-03-22T00:17:58;94325.09;;;7.94;100.00
64211;BME280;73293;48.538;14.354;2024-03-22T00:18:46;94323.66;;;7.99;100.00
64211;BME280;73293;48.538;14.354;2024-03-22T00:19:19;94319.08;;;7.99;100.00
64211;BME280;73293;48.538;14.354;2024-03-22T00:19:53;94323.45;;;7.94;100.00
64211;BME280;73293;48.538;14.354;2024-03-22T00:20:27;94322.20;;;7.89;100.00
64211;BME280;73293;48.538;14.354;2024-03-22T00:21:07;94317.00;;;7.86;100.00
64211;BME280;73293;48.538;14.354;2024-03-22T00:21:40;94320.13;;;7.89;100.00
64211;BME280;73293;48.538;14.354;2024-03-22T00:22:29;94316.33;;;7.90;100.00
64211;BME280;73293;48.538;14.354;2024-03-22T00:23:02;94308.79;;;7.90;100.00
64211;BME280;73293;48.538;14.354;2024-03-22T00:23:36;94311.74;;;7.98;100.00
64211;BME280;73293;48.538;14.354;2024-03-22T00:24:09;94311.56;;;7.97;100.00
64211;BME280;73293;48.538;14.354;2024-03-22T00:24:43;94311.30;;;7.96;100.00
64211;BME280;73293;48.538;14.354;2024-03-22T00:25:16;94309.20;;;7.95;100.00
64211;BME280;73293;48.538;14.354;2024-03-22T00:26:10;94307.77;;;7.98;100.00
64211;BME280;73293;48.538;14.354;2024-03-22T00:26:43;94314.55;;;8.04;100.00
64211;BME280;73293;48.538;14.354;2024-03-22T00:27:20;94310.69;;;8.10;100.00
64211;BME280;73293;48.538;14.354;2024-03-22T00:27:54;94311.46;;;8.09;100.00
64211;BME280;73293;48.538;14.354;2024-03-22T00:28:28;94312.06;;;8.09;100.00
64211;BME280;73293;48.538;14.354;2024-03-22T00:29:02;94315.03;;;8.07;100.00
64211;BME280;73293;48.538;14.354;2024-03-22T00:29:55;94311.13;;;8.10;100.00
64211;BME280;73293;48.538;14.354;2024-03-22T00:30:28;94312.98;;;8.04;100.00
64211;BME280;73293;48.538;14.354;2024-03-22T00:31:01;94311.29;;;8.08;100.00
64211;BME280;73293;48.538;14.354;2024-03-22T00:31:35;94311.80;;;8.04;100.00
64211;BME280;73293;48.538;14.354;2024-03-22T00:32:09;94314.20;;;8.02;100.00
64211;BME280;73293;48.538;14.354;2024-03-22T00:32:42;94314.04;;;7.99;100.00
64211;BME280;73293;48.538;14.354;2024-03-22T00:33:36;94316.72;;;8.15;100.00
64211;BME280;73293;48.538;14.354;2024-03-22T00:34:09;94315.73;;;8.07;100.00
64211;BME280;73293;48.538;14.354;2024-03-22T00:34:43;94316.21;;;8.02;100.00
64211;BME280;73293;48.538;14.354;2024-03-22T00:35:16;94315.58;;;8.09;100.00
64211;BME280;73293;48.538;14.354;2024-03-22T00:35:50;94320.39;;;8.07;100.00
64211;BME280;73293;48.538;14.354;2024-03-22T00:36:23;94322.20;;;8.07;100.00
64211;BME280;73293;48.538;14.354;2024-03-22T00:37:17;94314.61;;;8.03;100.00
64211;BME280;73293;48.538;14.354;2024-03-22T00:37:50;94317.24;;;8.04;100.00
64211;BME280;73293;48.538;14.354;2024-03-22T00:38:23;94314.00;;;8.00;100.00
64211;BME280;73293;48.538;14.354;2024-03-22T00:38:58;94312.09;;;8.01;100.00
64211;BME280;73293;48.538;14.354;2024-03-22T00:39:33;94311.30;;;7.95;100.00
64211;BME280;73293;48.538;14.354;2024-03-22T00:40:07;94313.50;;;7.97;100.00
64211;BME280;73293;48.538;14.354;2024-03-22T00:40:58;94313.48;;;7.98;100.00
64211;BME280;73293;48.538;14.354;2024-03-22T00:41:31;94316.73;;;7.89;100.00
64211;BME280;73293;48.538;14.354;2024-03-22T00:42:04;94314.16;;;7.91;100.00
64211;BME280;73293;48.538;14.354;2024-03-22T00:42:38;94312.64;;;7.88;100.00
64211;BME280;73293;48.538;14.354;2024-03-22T00:43:11;94313.05;;;7.88;100.00
64211;BME280;73293;48.538;14.354;2024-03-22T00:43:45;94318.84;;;7.92;100.00
64211;BME280;73293;48.538;14.354;2024-03-22T00:44:39;94311.88;;;7.95;100.00
64211;BME280;73293;48.538;14.354;2024-03-22T00:45:12;94317.02;;;7.89;100.00
64211;BME280;73293;48.538;14.354;2024-03-22T00:45:46;94314.64;;;7.84;100.00
64211;BME280;73293;48.538;14.354;2024-03-22T00:46:19;94321.14;;;7.90;100.00
64211;BME280;73293;48.538;14.354;2024-03-22T00:46:53;94317.70;;;7.89;100.00
64211;BME280;73293;48.538;14.354;2024-03-22T00:47:26;94315.42;;;7.82;100.00
64211;BME280;73293;48.538;14.354;2024-03-22T00:48:20;94317.92;;;7.80;100.00
64211;BME280;73293;48.538;14.354;2024-03-22T00:48:54;94314.80;;;7.78;100.00
64211;BME280;73293;48.538;14.354;2024-03-22T00:49:28;94318.40;;;7.80;100.00
64211;BME280;73293;48.538;14.354;2024-03-22T00:50:01;94320.63;;;7.77;100.00
64211;BME280;73293;48.538;14.354;2024-03-22T00:50:35;94319.50;;;7.71;100.00
64211;BME280;73293;48.538;14.354;2024-03-22T00:51:08;94318.70;;;7.74;100.00
64211;BME280;73293;48.538;14.354;2024-03-22T00:51:56;94316.80;;;7.83;100.00
64211;BME280;73293;48.538;14.354;2024-03-22T00:52:30;94319.69;;;7.76;100.00
64211;BME280;73293;48.538;14.354;2024-03-22T00:53:04;94316.96;;;7.79;100.00
64211;BME280;73293;48.538;14.354;2024-03-22T00:53:38;94314.29;;;7.80;100.00
64211;BME280;73293;48.538;14.354;2024-03-22T00:54:13;94317.29;;;7.89;100.00
64211;BME280;73293;48.538;14.354;2024-03-22T00:54:46;94315.20;;;7.89;100.00
64211;BME280;73293;48.538;14.354;2024-03-22T00:55:38;94313.05;;;7.91;100.00
64211;BME280;73293;48.538;14.354;2024-03-22T00:56:12;94313.77;;;7.85;100.00
64211;BME280;73293;48.538;14.354;2024-03-22T00:56:45;94316.15;;;7.87;100.00
64211;BME280;73293;48.538;14.354;2024-03-22T00:57:20;94313.89;;;7.89;100.00
64211;BME280;73293;48.538;14.354;2024-03-22T00:57:53;94313.15;;;7.89;100.00
64211;BME280;73293;48.538;14.354;2024-03-22T00:58:27;94313.73;;;7.87;100.00
64211;BME280;73293;48.538;14.354;2024-03-22T00:59:19;94314.82;;;7.83;100.00
64211;BME280;73293;48.538;14.354;2024-03-22T00:59:53;94312.92;;;7.73;100.00
64211;BME280;73293;48.538;14.354;2024-03-22T01:00:27;94310.48;;;7.63;100.00
64211;BME280;73293;48.538;14.354;2024-03-22T01:01:00;94307.27;;;7.67;100.00
64211;BME280;73293;48.538;14.354;2024-03-22T01:01:34;94310.17;;;7.69;100.00
64211;BME280;73293;48.538;14.354;2024-03-22T01:02:07;94311.27;;;7.81;100.00
64211;BME280;73293;48.538;14.354;2024-03-22T01:03:01;94305.98;;;7.74;100.00
64211;BME280;73293;48.538;14.354;2024-03-22T01:03:35;94306.32;;;7.76;100.00
64211;BME280;73293;48.538;14.354;2024-03-22T01:04:10;94302.42;;;7.78;100.00
64211;BME280;73293;48.538;14.354;2024-03-22T01:04:44;94300.69;;;7.87;100.00
64211;BME280;73293;48.538;14.354;2024-03-22T01:05:18;94297.60;;;7.86;100.00
64211;BME280;73293;48.538;14.354;2024-03-22T01:05:52;94296.12;;;7.82;100.00
64211;BME280;73293;48.538;14.354;2024-03-22T01:06:40;94303.29;;;7.80;100.00
64211;BME280;73293;48.538;14.354;2024-03-22T01:07:14;94302.11;;;7.74;100.00
64211;BME280;73293;48.538;14.354;2024-03-22T01:07:47;94304.27;;;7.69;100.00
64211;BME280;73293;48.538;14.354;2024-03-22T01:08:23;94299.48;;;7.60;100.00
64211;BME280;73293;48.538;14.354;2024-03-22T01:08:57;94301.32;;;7.70;100.00
64211;BME280;73293;48.538;14.354;2024-03-22T01:09:30;94302.41;;;7.70;100.00
64211;BME280;73293;48.538;14.354;2024-03-22T01:10:22;94301.45;;;7.64;100.00
64211;BME280;73293;48.538;14.354;2024-03-22T01:10:56;94301.96;;;7.58;100.00
64211;BME280;73293;48.538;14.354;2024-03-22T01:11:30;94297.15;;;7.55;100.00
64211;BME280;73293;48.538;14.354;2024-03-22T01:12:03;94296.98;;;7.53;100.00
64211;BME280;73293;48.538;14.354;2024-03-22T01:12:37;94299.35;;;7.45;100.00
64211;BME280;73293;48.538;14.354;2024-03-22T01:13:11;94294.11;;;7.46;100.00
64211;BME280;73293;48.538;14.354;2024-03-22T01:14:01;94290.00;;;7.38;100.00
64211;BME280;73293;48.538;14.354;2024-03-22T01:14:36;94294.39;;;7.38;100.00
64211;BME280;73293;48.538;14.354;2024-03-22T01:15:10;94289.80;;;7.30;100.00
64211;BME280;73293;48.538;14.354;2024-03-22T01:15:44;94292.87;;;7.24;100.00
64211;BME280;73293;48.538;14.354;2024-03-22T01:16:19;94289.88;;;7.26;100.00
64211;BME280;73293;48.538;14.354;2024-03-22T01:16:53;94289.05;;;7.31;100.00
64211;BME280;73293;48.538;14.354;2024-03-22T01:18:01;94292.84;;;7.32;100.00
64211;BME280;73293;48.538;14.354;2024-03-22T01:18:35;94292.42;;;7.25;100.00
64211;BME280;73293;48.538;14.354;2024-03-22T01:19:09;94292.29;;;7.22;100.00
64211;BME280;73293;48.538;14.354;2024-03-22T01:19:43;94293.50;;;7.21;100.00
64211;BME280;73293;48.538;14.354;2024-03-22T01:20:16;94290.48;;;7.18;100.00
64211;BME280;73293;48.538;14.354;2024-03-22T01:21:21;94294.29;;;7.09;100.00
64211;BME280;73293;48.538;14.354;2024-03-22T01:21:58;94293.36;;;7.03;100.00
64211;BME280;73293;48.538;14.354;2024-03-22T01:22:31;94296.44;;;7.03;100.00
64211;BME280;73293;48.538;14.354;2024-03-22T01:23:05;94295.06;;;6.98;100.00
64211;BME280;73293;48.538;14.354;2024-03-22T01:23:39;94292.45;;;6.97;100.00
64211;BME280;73293;48.538;14.354;2024-03-22T01:24:12;94292.70;;;6.92;100.00
64211;BME280;73293;48.538;14.354;2024-03-22T01:25:01;94292.52;;;6.87;100.00
64211;BME280;73293;48.538;14.354;2024-03-22T01:25:34;94289.23;;;6.79;100.00
64211;BME280;73293;48.538;14.354;2024-03-22T01:26:08;94287.27;;;6.76;100.00
64211;BME280;73293;48.538;14.354;2024-03-22T01:26:42;94294.23;;;6.70;100.00
64211;BME280;73293;48.538;14.354;2024-03-22T01:27:15;94296.40;;;6.67;100.00
64211;BME280;73293;48.538;14.354;2024-03-22T01:27:51;94289.20;;;6.62;100.00
64211;BME280;73293;48.538;14.354;2024-03-22T01:28:43;94294.13;;;6.59;100.00
64211;BME280;73293;48.538;14.354;2024-03-22T01:29:16;94290.36;;;6.51;100.00
64211;BME280;73293;48.538;14.354;2024-03-22T01:29:50;94292.80;;;6.47;100.00
64211;BME280;73293;48.538;14.354;2024-03-22T01:30:24;94291.18;;;6.44;100.00
64211;BME280;73293;48.538;14.354;2024-03-22T01:31:01;94290.58;;;6.43;100.00
64211;BME280;73293;48.538;14.354;2024-03-22T01:31:35;94290.45;;;6.43;100.00
64211;BME280;73293;48.538;14.354;2024-03-22T01:32:23;94287.55;;;6.45;100.00
64211;BME280;73293;48.538;14.354;2024-03-22T01:32:57;94288.04;;;6.39;100.00
64211;BME280;73293;48.538;14.354;2024-03-22T01:33:32;94287.89;;;6.47;100.00
64211;BME280;73293;48.538;14.354;2024-03-22T01:34:07;94286.52;;;6.44;100.00
64211;BME280;73293;48.538;14.354;2024-03-22T01:34:41;94286.88;;;6.44;100.00
64211;BME280;73293;48.538;14.354;2024-03-22T01:35:14;94288.46;;;6.42;100.00
64211;BME280;73293;48.538;14.354;2024-03-22T01:36:03;94283.98;;;6.51;100.00
64211;BME280;73293;48.538;14.354;2024-03-22T01:36:38;94284.73;;;6.58;100.00
64211;BME280;73293;48.538;14.354;2024-03-22T01:37:11;94283.17;;;6.68;100.00
64211;BME280;73293;48.538;14.354;2024-03-22T01:37:45;94286.56;;;6.72;100.00
64211;BME280;73293;48.538;14.354;2024-03-22T01:38:19;94284.36;;;6.66;100.00
64211;BME280;73293;48.538;14.354;2024-03-22T01:38:52;94283.67;;;6.61;100.00
64211;BME280;73293;48.538;14.354;2024-03-22T01:39:40;94285.44;;;6.66;100.00
64211;BME280;73293;48.538;14.354;2024-03-22T01:40:13;94284.55;;;6.63;100.00
64211;BME280;73293;48.538;14.354;2024-03-22T01:40:47;94281.33;;;6.63;100.00
64211;BME280;73293;48.538;14.354;2024-03-22T01:41:21;94284.66;;;6.74;100.00
64211;BME280;73293;48.538;14.354;2024-03-22T01:41:54;94286.70;;;6.75;100.00
64211;BME280;73293;48.538;14.354;2024-03-22T01:42:28;94286.52;;;6.79;100.00
64211;BME280;73293;48.538;14.354;2024-03-22T01:43:21;94291.80;;;6.79;100.00
64211;BME280;73293;48.538;14.354;2024-03-22T01:43:55;94291.06;;;6.79;100.00
64211;BME280;73293;48.538;14.354;2024-03-22T01:44:31;94285.84;;;6.79;100.00
64211;BME280;73293;48.538;14.354;2024-03-22T01:45:04;94288.17;;;6.78;100.00
64211;BME280;73293;48.538;14.354;2024-03-22T01:45:39;94288.96;;;6.79;100.00
64211;BME280;73293;48.538;14.354;2024-03-22T01:46:12;94286.31;;;6.80;100.00
64211;BME280;73293;48.538;14.354;2024-03-22T01:47:03;94286.15;;;6.80;100.00
64211;BME280;73293;48.538;14.354;2024-03-22T01:47:37;94283.25;;;6.71;100.00
64211;BME280;73293;48.538;14.354;2024-03-22T01:48:11;94283.05;;;6.65;100.00
64211;BME280;73293;48.538;14.354;2024-03-22T01:48:44;94284.97;;;6.60;100.00
64211;BME280;73293;48.538;14.354;2024-03-22T01:49:19;94283.86;;;6.58;100.00
64211;BME280;73293;48.538;14.354;2024-03-22T01:49:53;94286.42;;;6.53;100.00
64211;BME280;73293;48.538;14.354;2024-03-22T01:50:41;94284.16;;;6.47;100.00
64211;BME280;73293;48.538;14.354;2024-03-22T01:51:16;94286.02;;;6.41;100.00
64211;BME280;73293;48.538;14.354;2024-03-22T01:51:50;94282.19;;;6.36;100.00
64211;BME280;73293;48.538;14.354;2024-03-22T01:52:23;94285.17;;;6.33;100.00
64211;BME280;73293;48.538;14.354;2024-03-22T01:52:57;94284.56;;;6.25;100.00
64211;BME280;73293;48.538;14.354;2024-03-22T01:53:31;94283.34;;;6.23;100.00
64211;BME280;73293;48.538;14.354;2024-03-22T01:54:20;94287.11;;;6.25;100.00
64211;BME280;73293;48.538;14.354;2024-03-22T01:54:53;94284.59;;;6.21;100.00
64211;BME280;73293;48.538;14.354;2024-03-22T01:55:27;94286.06;;;6.17;100.00
64211;BME280;73293;48.538;14.354;2024-03-22T01:56:02;94284.63;;;6.16;100.00
64211;BME280;73293;48.538;14.354;2024-03-22T01:56:38;94286.99;;;6.13;100.00
64211;BME280;73293;48.538;14.354;2024-03-22T01:57:11;94287.42;;;6.08;100.00
64211;BME280;73293;48.538;14.354;2024-03-22T01:57:57;94286.23;;;6.15;100.00
64211;BME280;73293;48.538;14.354;2024-03-22T01:58:31;94284.38;;;6.16;100.00
64211;BME280;73293;48.538;14.354;2024-03-22T01:59:05;94284.54;;;6.15;100.00
64211;BME280;73293;48.538;14.354;2024-03-22T01:59:38;94286.38;;;6.18;100.00
64211;BME280;73293;48.538;14.354;2024-03-22T02:00:13;94285.21;;;6.18;100.00
64211;BME280;73293;48.538;14.354;2024-03-22T02:00:46;94285.66;;;6.13;100.00
64211;BME280;73293;48.538;14.354;2024-03-22T02:01:35;94285.14;;;6.18;100.00
64211;BME280;73293;48.538;14.354;2024-03-22T02:02:09;94287.04;;;6.18;100.00
64211;BME280;73293;48.538;14.354;2024-03-22T02:02:44;94289.71;;;6.17;100.00
64211;BME280;73293;48.538;14.354;2024-03-22T02:03:17;94286.10;;;6.10;100.00
64211;BME280;73293;48.538;14.354;2024-03-22T02:03:50;94289.39;;;6.10;100.00
64211;BME280;73293;48.538;14.354;2024-03-22T02:04:24;94287.08;;;6.04;100.00
64211;BME280;73293;48.538;14.354;2024-03-22T02:05:18;94290.64;;;6.08;100.00
64211;BME280;73293;48.538;14.354;2024-03-22T02:05:54;94289.41;;;6.03;100.00
64211;BME280;73293;48.538;14.354;2024-03-22T02:06:27;94287.80;;;6.04;100.00
64211;BME280;73293;48.538;14.354;2024-03-22T02:07:00;94288.77;;;6.03;100.00
64211;BME280;73293;48.538;14.354;2024-03-22T02:07:34;94285.34;;;6.00;100.00
64211;BME280;73293;48.538;14.354;2024-03-22T02:08:07;94287.34;;;6.00;100.00
64211;BME280;73293;48.538;14.354;2024-03-22T02:08:56;94283.90;;;6.03;100.00
64211;BME280;73293;48.538;14.354;2024-03-22T02:09:30;94284.19;;;5.96;100.00
64211;BME280;73293;48.538;14.354;2024-03-22T02:10:04;94281.48;;;5.97;100.00
64211;BME280;73293;48.538;14.354;2024-03-22T02:10:37;94280.65;;;5.99;100.00
64211;BME280;73293;48.538;14.354;2024-03-22T02:11:11;94281.55;;;5.95;100.00
64211;BME280;73293;48.538;14.354;2024-03-22T02:11:44;94276.03;;;5.91;100.00
64211;BME280;73293;48.538;14.354;2024-03-22T02:12:34;94281.11;;;5.95;100.00
64211;BME280;73293;48.538;14.354;2024-03-22T02:13:07;94281.09;;;5.96;100.00
64211;BME280;73293;48.538;14.354;2024-03-22T02:13:40;94278.50;;;5.94;100.00
64211;BME280;73293;48.538;14.354;2024-03-22T02:14:15;94278.56;;;5.98;100.00
64211;BME280;73293;48.538;14.354;2024-03-22T02:14:50;94279.78;;;5.95;100.00
64211;BME280;73293;48.538;14.354;2024-03-22T02:15:23;94276.63;;;5.97;100.00
64211;BME280;73293;48.538;14.354;2024-03-22T02:16:13;94275.84;;;6.02;100.00
64211;BME280;73293;48.538;14.354;2024-03-22T02:16:46;94270.98;;;5.95;100.00
64211;BME280;73293;48.538;14.354;2024-03-22T02:17:20;94274.60;;;5.95;100.00
64211;BME280;73293;48.538;14.354;2024-03-22T02:17:53;94272.80;;;5.94;100.00
64211;BME280;73293;48.538;14.354;2024-03-22T02:18:27;94274.55;;;5.95;100.00
64211;BME280;73293;48.538;14.354;2024-03-22T02:19:00;94273.60;;;5.93;100.00
64211;BME280;73293;48.538;14.354;2024-03-22T02:19:54;94271.80;;;5.95;100.00
64211;BME280;73293;48.538;14.354;2024-03-22T02:20:28;94271.30;;;5.95;100.00
64211;BME280;73293;48.538;14.354;2024-03-22T02:21:01;94272.07;;;5.96;100.00
64211;BME280;73293;48.538;14.354;2024-03-22T02:21:34;94272.50;;;5.96;100.00
64211;BME280;73293;48.538;14.354;2024-03-22T02:22:08;94273.06;;;5.96;100.00
64211;BME280;73293;48.538;14.354;2024-03-22T02:22:41;94271.30;;;5.98;100.00
64211;BME280;73293;48.538;14.354;2024-03-22T02:23:36;94270.36;;;5.99;100.00
64211;BME280;73293;48.538;14.354;2024-03-22T02:24:09;94269.63;;;5.93;100.00
64211;BME280;73293;48.538;14.354;2024-03-22T02:24:42;94267.59;;;5.94;100.00
64211;BME280;73293;48.538;14.354;2024-03-22T02:25:15;94270.38;;;5.97;100.00
64211;BME280;73293;48.538;14.354;2024-03-22T02:25:49;94269.69;;;5.98;100.00
64211;BME280;73293;48.538;14.354;2024-03-22T02:26:22;94269.58;;;5.99;100.00
64211;BME280;73293;48.538;14.354;2024-03-22T02:27:13;94269.89;;;6.02;100.00
64211;BME280;73293;48.538;14.354;2024-03-22T02:27:46;94266.20;;;5.99;100.00
64211;BME280;73293;48.538;14.354;2024-03-22T02:28:23;94270.65;;;6.00;100.00
64211;BME280;73293;48.538;14.354;2024-03-22T02:28:56;94270.55;;;6.02;100.00
64211;BME280;73293;48.538;14.354;2024-03-22T02:29:29;94270.96;;;6.01;100.00
64211;BME280;73293;48.538;14.354;2024-03-22T02:30:03;94273.98;;;6.01;100.00
64211;BME280;73293;48.538;14.354;2024-03-22T02:30:58;94270.12;;;6.08;100.00
64211;BME280;73293;48.538;14.354;2024-03-22T02:31:32;94270.27;;;6.05;100.00
64211;BME280;73293;48.538;14.354;2024-03-22T02:32:05;94268.66;;;6.04;100.00
64211;BME280;73293;48.538;14.354;2024-03-22T02:32:39;94261.56;;;6.11;100.00
64211;BME280;73293;48.538;14.354;2024-03-22T02:33:13;94269.73;;;6.14;100.00
64211;BME280;73293;48.538;14.354;2024-03-22T02:33:46;94265.86;;;6.26;100.00
64211;BME280;73293;48.538;14.354;2024-03-22T02:34:35;94269.88;;;6.32;100.00
64211;BME280;73293;48.538;14.354;2024-03-22T02:35:27;94263.92;;;6.21;100.00
64211;BME280;73293;48.538;14.354;2024-03-22T02:36:00;94264.68;;;6.23;100.00
64211;BME280;73293;48.538;14.354;2024-03-22T02:36:33;94261.78;;;6.24;100.00
64211;BME280;73293;48.538;14.354;2024-03-22T02:37:07;94266.77;;;6.19;100.00
64211;BME280;73293;48.538;14.354;2024-03-22T02:38:14;94263.11;;;6.20;100.00
64211;BME280;73293;48.538;14.354;2024-03-22T02:38:47;94262.10;;;6.20;100.00
64211;BME280;73293;48.538;14.354;2024-03-22T02:39:21;94258.62;;;6.20;100.00
64211;BME280;73293;48.538;14.354;2024-03-22T02:39:54;94257.84;;;6.18;100.00
64211;BME280;73293;48.538;14.354;2024-03-22T02:40:27;94259.09;;;6.22;100.00
64211;BME280;73293;48.538;14.354;2024-03-22T02:41:00;94253.84;;;6.28;100.00
64211;BME280;73293;48.538;14.354;2024-03-22T02:41:55;94252.04;;;6.33;100.00
64211;BME280;73293;48.538;14.354;2024-03-22T02:42:29;94255.08;;;6.30;100.00
64211;BME280;73293;48.538;14.354;2024-03-22T02:43:02;94251.91;;;6.29;100.00
64211;BME280;73293;48.538;14.354;2024-03-22T02:43:35;94249.34;;;6.28;100.00
64211;BME280;73293;48.538;14.354;2024-03-22T02:44:09;94246.35;;;6.24;100.00
64211;BME280;73293;48.538;14.354;2024-03-22T02:44:42;94248.63;;;6.26;100.00
64211;BME280;73293;48.538;14.354;2024-03-22T02:45:36;94253.02;;;6.31;100.00
64211;BME280;73293;48.538;14.354;2024-03-22T02:46:09;94253.40;;;6.27;100.00
64211;BME280;73293;48.538;14.354;2024-03-22T02:46:43;94254.73;;;6.27;100.00
64211;BME280;73293;48.538;14.354;2024-03-22T02:47:16;94249.17;;;6.28;100.00
64211;BME280;73293;48.538;14.354;2024-03-22T02:47:50;94257.79;;;6.31;100.00
64211;BME280;73293;48.538;14.354;2024-03-22T02:48:23;94257.03;;;6.32;100.00
64211;BME280;73293;48.538;14.354;2024-03-22T02:49:17;94258.23;;;6.52;100.00
64211;BME280;73293;48.538;14.354;2024-03-22T02:49:50;94259.65;;;6.54;100.00
64211;BME280;73293;48.538;14.354;2024-03-22T02:50:24;94259.48;;;6.44;100.00
64211;BME280;73293;48.538;14.354;2024-03-22T02:50:58;94257.11;;;6.40;100.00
64211;BME280;73293;48.538;14.354;2024-03-22T02:51:31;94259.52;;;6.36;100.00
64211;BME280;73293;48.538;14.354;2024-03-22T02:52:04;94257.42;;;6.35;100.00
64211;BME280;73293;48.538;14.354;2024-03-22T02:52:55;94251.42;;;6.36;100.00
64211;BME280;73293;48.538;14.354;2024-03-22T02:53:28;94254.46;;;6.37;100.00
64211;BME280;73293;48.538;14.354;2024-03-22T02:54:02;94256.37;;;6.34;100.00
64211;BME280;73293;48.538;14.354;2024-03-22T02:54:36;94254.30;;;6.35;100.00
64211;BME280;73293;48.538;14.354;2024-03-22T02:55:09;94252.05;;;6.38;100.00
64211;BME280;73293;48.538;14.354;2024-03-22T02:55:42;94254.70;;;6.37;100.00
64211;BME280;73293;48.538;14.354;2024-03-22T02:56:36;94252.35;;;6.39;100.00
64211;BME280;73293;48.538;14.354;2024-03-22T02:57:09;94252.17;;;6.37;100.00
64211;BME280;73293;48.538;14.354;2024-03-22T02:57:42;94252.87;;;6.41;100.00
64211;BME280;73293;48.538;14.354;2024-03-22T02:58:16;94254.88;;;6.35;100.00
64211;BME280;73293;48.538;14.354;2024-03-22T02:58:49;94249.07;;;6.34;100.00
64211;BME280;73293;48.538;14.354;2024-03-22T02:59:26;94247.48;;;6.29;100.00
64211;BME280;73293;48.538;14.354;2024-03-22T03:00:16;94250.50;;;6.36;100.00
64211;BME280;73293;48.538;14.354;2024-03-22T03:00:51;94251.73;;;6.34;100.00
64211;BME280;73293;48.538;14.354;2024-03-22T03:01:24;94247.60;;;6.36;100.00
64211;BME280;73293;48.538;14.354;2024-03-22T03:01:57;94247.95;;;6.32;100.00
64211;BME280;73293;48.538;14.354;2024-03-22T03:02:30;94251.52;;;6.31;100.00
64211;BME280;73293;48.538;14.354;2024-03-22T03:03:04;94250.23;;;6.33;100.00
64211;BME280;73293;48.538;14.354;2024-03-22T03:03:55;94247.23;;;6.32;100.00
64211;BME280;73293;48.538;14.354;2024-03-22T03:04:28;94248.83;;;6.33;100.00
64211;BME280;73293;48.538;14.354;2024-03-22T03:05:02;94247.43;;;6.29;100.00
64211;BME280;73293;48.538;14.354;2024-03-22T03:05:37;94247.91;;;6.32;100.00
64211;BME280;73293;48.538;14.354;2024-03-22T03:06:10;94244.11;;;6.30;100.00
64211;BME280;73293;48.538;14.354;2024-03-22T03:06:46;94245.20;;;6.30;100.00
64211;BME280;73293;48.538;14.354;2024-03-22T03:07:37;94245.52;;;6.34;100.00
64211;BME280;73293;48.538;14.354;2024-03-22T03:08:10;94243.70;;;6.31;100.00
64211;BME280;73293;48.538;14.354;2024-03-22T03:08:43;94247.45;;;6.36;100.00
64211;BME280;73293;48.538;14.354;2024-03-22T03:09:17;94248.92;;;6.31;100.00
64211;BME280;73293;48.538;14.354;2024-03-22T03:09:50;94250.59;;;6.33;100.00
64211;BME280;73293;48.538;14.354;2024-03-22T03:10:23;94250.55;;;6.32;100.00
64211;BME280;73293;48.538;14.354;2024-03-22T03:11:17;94247.27;;;6.31;100.00
64211;BME280;73293;48.538;14.354;2024-03-22T03:11:50;94246.40;;;6.23;100.00
64211;BME280;73293;48.538;14.354;2024-03-22T03:12:24;94245.64;;;6.22;100.00
64211;BME280;73293;48.538;14.354;2024-03-22T03:12:57;94247.17;;;6.21;100.00
64211;BME280;73293;48.538;14.354;2024-03-22T03:13:31;94244.44;;;6.21;100.00